CYKA

Kamloops Airport

Kamloops, British Columbia, Canada
METAR CYKA 170800Z 23008KT 40SM SCT048 00/M05 A3050 RMK SC4 SLP343
Observed Flight Rules
Nov-17 @ 08:00 UTC (57 minutes ago) Visual Flight Rules
Wind Visibility Clouds
230° at 8 knots 40 miles
  • Scattered at 4,800' AGL
Temperatures Readings
Current 0°C / 32°F
Dewpoint -5°C / 23°F
Humidity 69%
Altimeter 30.5" Hg
Pressure 1034.3 hPa
Elevation 346
METAR CYKA 170800Z 23008KT 40SM SCT048 00/M05 A3050 RMK SC4 SLP343
Observed Flight Rules
Nov-17 @ 08:00 UTC
(57 minutes ago)
VFR
Wind Visibility
230° at 8 knots 40 miles
Clouds
  • Scattered at 4,800' AGL
Temperature Dewpoint
0°C / 32°F -5°C / 23°F
Humidity Altimeter Pressure
69% 30.5" Hg 1034.3 hPa